sensor_id;sensor_type;location;lat;lon;timestamp;P1;durP1;ratioP1;P2;durP2;ratioP2
68140;SDS011;54941;52.220;104.306;2024-01-10T00:02:12;23.77;;;12.40;;
68140;SDS011;54941;52.220;104.306;2024-01-10T00:04:38;21.88;;;10.73;;
68140;SDS011;54941;52.220;104.306;2024-01-10T00:07:04;22.48;;;11.13;;
68140;SDS011;54941;52.220;104.306;2024-01-10T00:09:32;26.17;;;12.38;;
68140;SDS011;54941;52.220;104.306;2024-01-10T00:11:58;26.98;;;11.65;;
68140;SDS011;54941;52.220;104.306;2024-01-10T00:14:25;25.52;;;12.20;;
68140;SDS011;54941;52.220;104.306;2024-01-10T00:16:51;25.02;;;12.18;;
68140;SDS011;54941;52.220;104.306;2024-01-10T00:19:17;27.30;;;10.77;;
68140;SDS011;54941;52.220;104.306;2024-01-10T00:21:43;29.50;;;17.95;;
68140;SDS011;54941;52.220;104.306;2024-01-10T00:24:09;26.25;;;10.98;;
68140;SDS011;54941;52.220;104.306;2024-01-10T00:26:37;23.08;;;12.23;;
68140;SDS011;54941;52.220;104.306;2024-01-10T00:29:03;22.95;;;10.50;;
68140;SDS011;54941;52.220;104.306;2024-01-10T00:31:29;23.58;;;10.55;;
68140;SDS011;54941;52.220;104.306;2024-01-10T00:33:55;23.42;;;10.05;;
68140;SDS011;54941;52.220;104.306;2024-01-10T00:36:22;21.70;;;10.40;;
68140;SDS011;54941;52.220;104.306;2024-01-10T00:38:48;19.65;;;9.57;;
68140;SDS011;54941;52.220;104.306;2024-01-10T00:41:14;18.48;;;9.15;;
68140;SDS011;54941;52.220;104.306;2024-01-10T00:43:42;24.90;;;9.82;;
68140;SDS011;54941;52.220;104.306;2024-01-10T00:46:08;21.50;;;8.77;;
68140;SDS011;54941;52.220;104.306;2024-01-10T00:48:34;24.00;;;10.38;;
68140;SDS011;54941;52.220;104.306;2024-01-10T00:51:00;22.80;;;9.52;;
68140;SDS011;54941;52.220;104.306;2024-01-10T00:53:26;23.98;;;9.32;;
68140;SDS011;54941;52.220;104.306;2024-01-10T00:55:53;20.17;;;10.30;;
68140;SDS011;54941;52.220;104.306;2024-01-10T00:58:19;19.00;;;9.10;;
68140;SDS011;54941;52.220;104.306;2024-01-10T01:00:47;22.65;;;10.07;;
68140;SDS011;54941;52.220;104.306;2024-01-10T01:03:13;18.90;;;9.05;;
68140;SDS011;54941;52.220;104.306;2024-01-10T01:05:39;18.65;;;9.45;;
68140;SDS011;54941;52.220;104.306;2024-01-10T01:08:06;20.77;;;9.93;;
68140;SDS011;54941;52.220;104.306;2024-01-10T01:10:33;23.25;;;9.90;;
68140;SDS011;54941;52.220;104.306;2024-01-10T01:12:59;22.30;;;10.35;;
68140;SDS011;54941;52.220;104.306;2024-01-10T01:15:25;21.23;;;10.25;;
68140;SDS011;54941;52.220;104.306;2024-01-10T01:17:53;20.95;;;10.35;;
68140;SDS011;54941;52.220;104.306;2024-01-10T01:20:19;21.00;;;11.15;;
68140;SDS011;54941;52.220;104.306;2024-01-10T01:22:45;23.45;;;11.38;;
68140;SDS011;54941;52.220;104.306;2024-01-10T01:25:11;22.25;;;11.25;;
68140;SDS011;54941;52.220;104.306;2024-01-10T01:27:38;25.58;;;11.27;;
68140;SDS011;54941;52.220;104.306;2024-01-10T01:30:04;22.38;;;11.73;;
68140;SDS011;54941;52.220;104.306;2024-01-10T01:32:31;23.15;;;10.85;;
68140;SDS011;54941;52.220;104.306;2024-01-10T01:34:59;27.23;;;10.90;;
68140;SDS011;54941;52.220;104.306;2024-01-10T01:37:25;26.10;;;12.20;;
68140;SDS011;54941;52.220;104.306;2024-01-10T01:39:52;21.27;;;9.65;;
68140;SDS011;54941;52.220;104.306;2024-01-10T01:42:18;27.13;;;13.25;;
68140;SDS011;54941;52.220;104.306;2024-01-10T01:44:44;21.25;;;10.77;;
68140;SDS011;54941;52.220;104.306;2024-01-10T01:47:10;20.58;;;9.40;;
68140;SDS011;54941;52.220;104.306;2024-01-10T01:49:36;24.52;;;10.90;;
68140;SDS011;54941;52.220;104.306;2024-01-10T01:52:05;26.98;;;11.63;;
68140;SDS011;54941;52.220;104.306;2024-01-10T01:54:31;22.05;;;11.95;;
68140;SDS011;54941;52.220;104.306;2024-01-10T01:56:59;20.17;;;10.25;;
68140;SDS011;54941;52.220;104.306;2024-01-10T01:59:25;21.58;;;10.07;;
68140;SDS011;54941;52.220;104.306;2024-01-10T02:01:52;22.08;;;9.93;;
68140;SDS011;54941;52.220;104.306;2024-01-10T02:04:20;20.35;;;8.75;;
68140;SDS011;54941;52.220;104.306;2024-01-10T02:06:47;19.40;;;7.22;;
68140;SDS011;54941;52.220;104.306;2024-01-10T02:09:15;19.50;;;9.50;;
68140;SDS011;54941;52.220;104.306;2024-01-10T02:11:41;18.15;;;7.60;;
68140;SDS011;54941;52.220;104.306;2024-01-10T02:14:08;19.52;;;9.25;;
68140;SDS011;54941;52.220;104.306;2024-01-10T02:16:35;17.42;;;7.38;;
68140;SDS011;54941;52.220;104.306;2024-01-10T02:19:01;24.30;;;12.57;;
68140;SDS011;54941;52.220;104.306;2024-01-10T02:21:43;20.52;;;8.45;;
68140;SDS011;54941;52.220;104.306;2024-01-10T02:24:09;23.35;;;10.48;;
68140;SDS011;54941;52.220;104.306;2024-01-10T02:26:37;15.82;;;7.60;;
68140;SDS011;54941;52.220;104.306;2024-01-10T02:29:04;12.65;;;6.15;;
68140;SDS011;54941;52.220;104.306;2024-01-10T02:31:30;18.42;;;8.50;;
68140;SDS011;54941;52.220;104.306;2024-01-10T02:33:56;15.80;;;7.38;;
68140;SDS011;54941;52.220;104.306;2024-01-10T02:36:22;20.95;;;10.02;;
68140;SDS011;54941;52.220;104.306;2024-01-10T02:38:48;16.10;;;9.32;;
68140;SDS011;54941;52.220;104.306;2024-01-10T02:41:15;20.20;;;8.82;;
68140;SDS011;54941;52.220;104.306;2024-01-10T02:43:42;20.42;;;9.30;;
68140;SDS011;54941;52.220;104.306;2024-01-10T02:46:08;15.52;;;9.30;;
68140;SDS011;54941;52.220;104.306;2024-01-10T02:48:34;12.77;;;7.05;;
68140;SDS011;54941;52.220;104.306;2024-01-10T02:51:01;15.52;;;7.40;;
68140;SDS011;54941;52.220;104.306;2024-01-10T02:53:27;15.38;;;7.03;;
68140;SDS011;54941;52.220;104.306;2024-01-10T02:55:53;18.50;;;7.93;;
68140;SDS011;54941;52.220;104.306;2024-01-10T02:58:20;15.52;;;6.90;;
68140;SDS011;54941;52.220;104.306;2024-01-10T03:00:47;15.20;;;5.50;;
68140;SDS011;54941;52.220;104.306;2024-01-10T03:03:13;12.13;;;5.90;;
68140;SDS011;54941;52.220;104.306;2024-01-10T03:05:40;10.80;;;4.40;;
68140;SDS011;54941;52.220;104.306;2024-01-10T03:08:06;7.88;;;3.45;;
68140;SDS011;54941;52.220;104.306;2024-01-10T03:10:32;8.70;;;3.80;;
68140;SDS011;54941;52.220;104.306;2024-01-10T03:12:58;9.48;;;4.05;;
68140;SDS011;54941;52.220;104.306;2024-01-10T03:15:24;10.65;;;4.35;;
68140;SDS011;54941;52.220;104.306;2024-01-10T03:17:52;6.68;;;2.63;;
68140;SDS011;54941;52.220;104.306;2024-01-10T03:20:18;8.30;;;3.38;;
68140;SDS011;54941;52.220;104.306;2024-01-10T03:22:45;11.75;;;3.90;;
68140;SDS011;54941;52.220;104.306;2024-01-10T03:25:11;8.93;;;3.35;;
68140;SDS011;54941;52.220;104.306;2024-01-10T03:27:37;6.50;;;3.28;;
68140;SDS011;54941;52.220;104.306;2024-01-10T03:30:04;9.20;;;3.63;;
68140;SDS011;54941;52.220;104.306;2024-01-10T03:32:31;10.32;;;3.97;;
68140;SDS011;54941;52.220;104.306;2024-01-10T03:34:58;8.77;;;3.75;;
68140;SDS011;54941;52.220;104.306;2024-01-10T03:37:25;10.43;;;4.70;;
68140;SDS011;54941;52.220;104.306;2024-01-10T03:39:51;11.68;;;4.10;;
68140;SDS011;54941;52.220;104.306;2024-01-10T03:42:17;14.75;;;4.30;;
68140;SDS011;54941;52.220;104.306;2024-01-10T03:44:43;10.57;;;5.25;;
68140;SDS011;54941;52.220;104.306;2024-01-10T03:47:09;12.18;;;4.45;;
68140;SDS011;54941;52.220;104.306;2024-01-10T03:49:35;14.05;;;5.43;;
68140;SDS011;54941;52.220;104.306;2024-01-10T03:52:03;12.15;;;5.20;;
68140;SDS011;54941;52.220;104.306;2024-01-10T03:54:30;13.00;;;5.28;;
68140;SDS011;54941;52.220;104.306;2024-01-10T03:56:56;10.30;;;4.88;;
68140;SDS011;54941;52.220;104.306;2024-01-10T03:59:22;14.07;;;4.85;;
68140;SDS011;54941;52.220;104.306;2024-01-10T04:01:48;12.00;;;4.68;;
68140;SDS011;54941;52.220;104.306;2024-01-10T04:04:14;13.35;;;5.07;;
68140;SDS011;54941;52.220;104.306;2024-01-10T04:06:41;9.68;;;4.32;;
68140;SDS011;54941;52.220;104.306;2024-01-10T04:09:08;11.15;;;4.65;;
68140;SDS011;54941;52.220;104.306;2024-01-10T04:11:34;11.25;;;5.03;;
68140;SDS011;54941;52.220;104.306;2024-01-10T04:14:01;9.98;;;4.72;;
68140;SDS011;54941;52.220;104.306;2024-01-10T04:16:27;9.30;;;4.30;;
68140;SDS011;54941;52.220;104.306;2024-01-10T04:18:53;9.30;;;4.10;;
68140;SDS011;54941;52.220;104.306;2024-01-10T04:21:19;10.57;;;4.03;;
68140;SDS011;54941;52.220;104.306;2024-01-10T04:23:45;8.82;;;4.40;;
68140;SDS011;54941;52.220;104.306;2024-01-10T04:26:13;9.68;;;4.15;;
68140;SDS011;54941;52.220;104.306;2024-01-10T04:28:39;8.98;;;3.97;;
68140;SDS011;54941;52.220;104.306;2024-01-10T04:31:05;11.25;;;4.05;;
68140;SDS011;54941;52.220;104.306;2024-01-10T04:33:32;9.90;;;4.15;;
68140;SDS011;54941;52.220;104.306;2024-01-10T04:35:58;12.18;;;4.60;;
68140;SDS011;54941;52.220;104.306;2024-01-10T04:38:24;14.63;;;3.95;;
68140;SDS011;54941;52.220;104.306;2024-01-10T04:40:50;8.65;;;3.80;;
68140;SDS011;54941;52.220;104.306;2024-01-10T04:43:18;7.53;;;2.63;;
68140;SDS011;54941;52.220;104.306;2024-01-10T04:45:44;9.85;;;2.78;;
68140;SDS011;54941;52.220;104.306;2024-01-10T04:48:10;8.07;;;3.03;;
68140;SDS011;54941;52.220;104.306;2024-01-10T04:50:37;9.93;;;3.33;;
68140;SDS011;54941;52.220;104.306;2024-01-10T04:53:03;9.45;;;4.22;;
68140;SDS011;54941;52.220;104.306;2024-01-10T04:55:29;5.75;;;3.28;;
68140;SDS011;54941;52.220;104.306;2024-01-10T04:57:55;8.88;;;3.03;;
68140;SDS011;54941;52.220;104.306;2024-01-10T05:00:23;7.18;;;3.05;;
68140;SDS011;54941;52.220;104.306;2024-01-10T05:02:49;7.85;;;3.28;;
68140;SDS011;54941;52.220;104.306;2024-01-10T05:05:16;8.82;;;3.30;;
68140;SDS011;54941;52.220;104.306;2024-01-10T05:07:42;7.45;;;3.40;;
68140;SDS011;54941;52.220;104.306;2024-01-10T05:10:08;9.02;;;3.55;;
68140;SDS011;54941;52.220;104.306;2024-01-10T05:12:35;8.80;;;3.00;;
68140;SDS011;54941;52.220;104.306;2024-01-10T05:15:01;6.00;;;2.92;;
68140;SDS011;54941;52.220;104.306;2024-01-10T05:17:30;7.88;;;2.40;;
68140;SDS011;54941;52.220;104.306;2024-01-10T05:19:56;4.03;;;2.00;;
68140;SDS011;54941;52.220;104.306;2024-01-10T05:22:22;11.05;;;2.95;;
68140;SDS011;54941;52.220;104.306;2024-01-10T05:24:49;5.90;;;2.47;;
68140;SDS011;54941;52.220;104.306;2024-01-10T05:27:15;7.30;;;2.40;;
68140;SDS011;54941;52.220;104.306;2024-01-10T05:29:41;4.13;;;1.42;;
68140;SDS011;54941;52.220;104.306;2024-01-10T05:32:07;4.88;;;2.20;;
68140;SDS011;54941;52.220;104.306;2024-01-10T05:34:35;4.28;;;1.83;;
68140;SDS011;54941;52.220;104.306;2024-01-10T05:37:01;3.85;;;1.65;;
68140;SDS011;54941;52.220;104.306;2024-01-10T05:39:28;3.65;;;1.98;;
68140;SDS011;54941;52.220;104.306;2024-01-10T05:41:54;6.57;;;2.13;;
68140;SDS011;54941;52.220;104.306;2024-01-10T05:44:20;5.80;;;1.80;;
68140;SDS011;54941;52.220;104.306;2024-01-10T05:46:46;2.83;;;1.38;;
68140;SDS011;54941;52.220;104.306;2024-01-10T05:49:12;5.47;;;2.00;;
68140;SDS011;54941;52.220;104.306;2024-01-10T05:51:40;5.15;;;2.10;;
68140;SDS011;54941;52.220;104.306;2024-01-10T05:54:06;4.10;;;1.90;;
68140;SDS011;54941;52.220;104.306;2024-01-10T05:56:32;4.55;;;2.25;;
68140;SDS011;54941;52.220;104.306;2024-01-10T05:58:59;7.03;;;2.38;;
68140;SDS011;54941;52.220;104.306;2024-01-10T06:01:25;5.35;;;2.60;;
68140;SDS011;54941;52.220;104.306;2024-01-10T06:03:51;6.65;;;2.58;;
68140;SDS011;54941;52.220;104.306;2024-01-10T06:06:17;4.80;;;1.92;;
68140;SDS011;54941;52.220;104.306;2024-01-10T06:08:45;4.47;;;2.42;;
68140;SDS011;54941;52.220;104.306;2024-01-10T06:11:11;4.35;;;1.83;;
68140;SDS011;54941;52.220;104.306;2024-01-10T06:13:37;6.18;;;2.53;;
68140;SDS011;54941;52.220;104.306;2024-01-10T06:16:03;5.18;;;1.88;;
68140;SDS011;54941;52.220;104.306;2024-01-10T06:18:30;4.70;;;1.67;;
68140;SDS011;54941;52.220;104.306;2024-01-10T06:20:56;5.25;;;2.05;;
68140;SDS011;54941;52.220;104.306;2024-01-10T06:23:22;2.95;;;1.45;;
68140;SDS011;54941;52.220;104.306;2024-01-10T06:25:53;4.68;;;1.67;;
68140;SDS011;54941;52.220;104.306;2024-01-10T06:28:19;3.42;;;1.50;;
68140;SDS011;54941;52.220;104.306;2024-01-10T06:30:45;3.63;;;1.63;;
68140;SDS011;54941;52.220;104.306;2024-01-10T06:33:14;4.47;;;2.38;;
68140;SDS011;54941;52.220;104.306;2024-01-10T06:35:43;3.85;;;1.45;;
68140;SDS011;54941;52.220;104.306;2024-01-10T06:38:09;5.70;;;1.60;;
68140;SDS011;54941;52.220;104.306;2024-01-10T06:40:35;3.97;;;1.33;;
68140;SDS011;54941;52.220;104.306;2024-01-10T06:43:03;3.03;;;1.10;;
68140;SDS011;54941;52.220;104.306;2024-01-10T06:45:31;5.75;;;1.60;;
68140;SDS011;54941;52.220;104.306;2024-01-10T06:48:00;2.28;;;1.13;;
68140;SDS011;54941;52.220;104.306;2024-01-10T06:50:27;4.25;;;1.40;;
68140;SDS011;54941;52.220;104.306;2024-01-10T06:52:55;2.80;;;1.80;;
68140;SDS011;54941;52.220;104.306;2024-01-10T06:55:26;4.72;;;1.83;;
68140;SDS011;54941;52.220;104.306;2024-01-10T06:57:58;2.78;;;1.23;;
68140;SDS011;54941;52.220;104.306;2024-01-10T07:00:32;5.43;;;1.52;;
68140;SDS011;54941;52.220;104.306;2024-01-10T07:03:01;3.60;;;1.92;;
68140;SDS011;54941;52.220;104.306;2024-01-10T07:05:30;4.35;;;1.13;;
68140;SDS011;54941;52.220;104.306;2024-01-10T07:07:57;3.30;;;1.48;;
68140;SDS011;54941;52.220;104.306;2024-01-10T07:10:25;2.25;;;1.15;;
68140;SDS011;54941;52.220;104.306;2024-01-10T07:12:54;4.75;;;2.13;;
68140;SDS011;54941;52.220;104.306;2024-01-10T07:15:20;5.30;;;1.50;;
68140;SDS011;54941;52.220;104.306;2024-01-10T07:17:50;2.40;;;1.13;;
68140;SDS011;54941;52.220;104.306;2024-01-10T07:20:16;3.38;;;1.50;;
68140;SDS011;54941;52.220;104.306;2024-01-10T07:22:42;4.15;;;2.33;;
68140;SDS011;54941;52.220;104.306;2024-01-10T07:25:09;3.05;;;1.48;;
68140;SDS011;54941;52.220;104.306;2024-01-10T07:27:38;4.05;;;1.67;;
68140;SDS011;54941;52.220;104.306;2024-01-10T07:30:04;2.38;;;1.38;;
68140;SDS011;54941;52.220;104.306;2024-01-10T07:32:37;2.97;;;0.88;;
68140;SDS011;54941;52.220;104.306;2024-01-10T07:35:06;2.70;;;1.20;;
68140;SDS011;54941;52.220;104.306;2024-01-10T07:37:35;2.55;;;0.88;;
68140;SDS011;54941;52.220;104.306;2024-01-10T07:40:04;1.55;;;0.65;;
68140;SDS011;54941;52.220;104.306;2024-01-10T07:42:31;3.47;;;1.42;;
68140;SDS011;54941;52.220;104.306;2024-01-10T07:45:03;3.45;;;1.60;;
68140;SDS011;54941;52.220;104.306;2024-01-10T07:47:31;2.95;;;1.85;;
68140;SDS011;54941;52.220;104.306;2024-01-10T07:50:00;3.38;;;1.75;;
68140;SDS011;54941;52.220;104.306;2024-01-10T07:52:31;2.65;;;1.40;;
68140;SDS011;54941;52.220;104.306;2024-01-10T07:55:01;3.63;;;1.85;;
68140;SDS011;54941;52.220;104.306;2024-01-10T07:57:29;4.88;;;1.80;;
68140;SDS011;54941;52.220;104.306;2024-01-10T07:59:55;4.15;;;1.40;;
68140;SDS011;54941;52.220;104.306;2024-01-10T08:02:24;4.80;;;2.13;;
68140;SDS011;54941;52.220;104.306;2024-01-10T08:04:51;4.10;;;2.00;;
68140;SDS011;54941;52.220;104.306;2024-01-10T08:07:26;3.53;;;1.92;;
68140;SDS011;54941;52.220;104.306;2024-01-10T08:09:54;3.20;;;1.60;;
68140;SDS011;54941;52.220;104.306;2024-01-10T08:12:21;4.03;;;1.73;;
68140;SDS011;54941;52.220;104.306;2024-01-10T08:14:47;3.63;;;1.50;;
68140;SDS011;54941;52.220;104.306;2024-01-10T08:17:13;4.00;;;1.80;;
68140;SDS011;54941;52.220;104.306;2024-01-10T08:19:39;3.90;;;1.25;;
68140;SDS011;54941;52.220;104.306;2024-01-10T08:22:08;3.97;;;1.85;;
68140;SDS011;54941;52.220;104.306;2024-01-10T08:24:43;4.03;;;1.70;;
68140;SDS011;54941;52.220;104.306;2024-01-10T08:27:12;4.45;;;1.73;;
68140;SDS011;54941;52.220;104.306;2024-01-10T08:29:41;8.35;;;2.30;;
68140;SDS011;54941;52.220;104.306;2024-01-10T08:32:07;3.78;;;1.33;;
68140;SDS011;54941;52.220;104.306;2024-01-10T08:34:33;2.70;;;1.10;;
68140;SDS011;54941;52.220;104.306;2024-01-10T08:37:02;3.40;;;1.40;;
68140;SDS011;54941;52.220;104.306;2024-01-10T08:39:28;3.45;;;1.67;;
68140;SDS011;54941;52.220;104.306;2024-01-10T08:41:58;4.45;;;2.38;;
68140;SDS011;54941;52.220;104.306;2024-01-10T08:44:24;2.33;;;1.13;;
68140;SDS011;54941;52.220;104.306;2024-01-10T08:46:51;4.55;;;1.85;;
68140;SDS011;54941;52.220;104.306;2024-01-10T08:49:22;4.70;;;1.85;;
68140;SDS011;54941;52.220;104.306;2024-01-10T08:51:48;4.15;;;1.60;;
68140;SDS011;54941;52.220;104.306;2024-01-10T08:54:14;5.63;;;1.92;;
68140;SDS011;54941;52.220;104.306;2024-01-10T08:56:40;6.20;;;1.92;;
68140;SDS011;54941;52.220;104.306;2024-01-10T08:59:10;6.32;;;2.65;;
68140;SDS011;54941;52.220;104.306;2024-01-10T09:01:36;12.65;;;5.50;;
68140;SDS011;54941;52.220;104.306;2024-01-10T09:04:05;4.80;;;2.30;;
68140;SDS011;54941;52.220;104.306;2024-01-10T09:06:32;3.13;;;1.52;;
68140;SDS011;54941;52.220;104.306;2024-01-10T09:08:58;4.93;;;1.73;;
68140;SDS011;54941;52.220;104.306;2024-01-10T09:11:24;4.55;;;1.58;;
68140;SDS011;54941;52.220;104.306;2024-01-10T09:13:50;5.50;;;2.65;;
68140;SDS011;54941;52.220;104.306;2024-01-10T09:16:18;3.80;;;1.60;;
68140;SDS011;54941;52.220;104.306;2024-01-10T09:18:47;5.57;;;2.28;;
68140;SDS011;54941;52.220;104.306;2024-01-10T09:21:19;4.38;;;2.38;;
68140;SDS011;54941;52.220;104.306;2024-01-10T09:23:50;6.15;;;2.58;;
68140;SDS011;54941;52.220;104.306;2024-01-10T09:26:19;5.70;;;2.30;;
68140;SDS011;54941;52.220;104.306;2024-01-10T09:28:45;4.20;;;2.42;;
68140;SDS011;54941;52.220;104.306;2024-01-10T09:31:12;6.80;;;2.50;;
68140;SDS011;54941;52.220;104.306;2024-01-10T09:33:42;6.10;;;2.00;;
68140;SDS011;54941;52.220;104.306;2024-01-10T09:36:10;7.18;;;2.40;;
68140;SDS011;54941;52.220;104.306;2024-01-10T09:38:37;5.55;;;2.80;;
68140;SDS011;54941;52.220;104.306;2024-01-10T09:41:03;8.15;;;2.80;;
68140;SDS011;54941;52.220;104.306;2024-01-10T09:43:32;6.28;;;2.95;;
68140;SDS011;54941;52.220;104.306;2024-01-10T09:46:01;3.28;;;1.85;;
68140;SDS011;54941;52.220;104.306;2024-01-10T09:48:27;6.32;;;2.25;;
68140;SDS011;54941;52.220;104.306;2024-01-10T09:51:02;5.03;;;2.25;;
68140;SDS011;54941;52.220;104.306;2024-01-10T09:53:31;3.40;;;1.30;;
68140;SDS011;54941;52.220;104.306;2024-01-10T09:56:03;4.28;;;1.85;;
68140;SDS011;54941;52.220;104.306;2024-01-10T09:58:29;4.68;;;2.13;;
68140;SDS011;54941;52.220;104.306;2024-01-10T10:00:57;5.38;;;2.50;;
68140;SDS011;54941;52.220;104.306;2024-01-10T10:03:23;6.80;;;2.00;;
68140;SDS011;54941;52.220;104.306;2024-01-10T10:05:50;6.78;;;2.83;;
68140;SDS011;54941;52.220;104.306;2024-01-10T10:08:17;6.88;;;2.78;;
68140;SDS011;54941;52.220;104.306;2024-01-10T10:10:45;6.65;;;2.20;;
68140;SDS011;54941;52.220;104.306;2024-01-10T10:13:23;5.80;;;2.67;;
68140;SDS011;54941;52.220;104.306;2024-01-10T10:15:57;9.02;;;2.92;;
68140;SDS011;54941;52.220;104.306;2024-01-10T10:18:24;6.05;;;2.70;;
68140;SDS011;54941;52.220;104.306;2024-01-10T10:21:03;4.72;;;2.20;;
68140;SDS011;54941;52.220;104.306;2024-01-10T10:23:41;6.32;;;2.03;;
68140;SDS011;54941;52.220;104.306;2024-01-10T10:26:12;7.63;;;3.25;;
68140;SDS011;54941;52.220;104.306;2024-01-10T10:28:39;6.18;;;3.00;;
68140;SDS011;54941;52.220;104.306;2024-01-10T10:31:06;7.05;;;3.05;;
68140;SDS011;54941;52.220;104.306;2024-01-10T10:33:36;7.10;;;3.75;;
68140;SDS011;54941;52.220;104.306;2024-01-10T10:36:02;6.10;;;3.00;;
68140;SDS011;54941;52.220;104.306;2024-01-10T10:38:29;6.38;;;3.58;;
68140;SDS011;54941;52.220;104.306;2024-01-10T10:40:59;6.43;;;3.22;;
68140;SDS011;54941;52.220;104.306;2024-01-10T10:43:33;7.90;;;3.05;;
68140;SDS011;54941;52.220;104.306;2024-01-10T10:46:00;7.55;;;3.47;;
68140;SDS011;54941;52.220;104.306;2024-01-10T10:48:27;6.68;;;3.47;;
68140;SDS011;54941;52.220;104.306;2024-01-10T10:50:59;7.60;;;3.15;;
68140;SDS011;54941;52.220;104.306;2024-01-10T10:53:33;7.00;;;2.85;;
68140;SDS011;54941;52.220;104.306;2024-01-10T10:56:04;4.45;;;2.42;;
68140;SDS011;54941;52.220;104.306;2024-01-10T10:58:32;7.70;;;3.20;;
68140;SDS011;54941;52.220;104.306;2024-01-10T11:00:59;6.90;;;3.40;;
68140;SDS011;54941;52.220;104.306;2024-01-10T11:03:27;7.68;;;2.58;;
68140;SDS011;54941;52.220;104.306;2024-01-10T11:05:55;4.25;;;1.73;;
68140;SDS011;54941;52.220;104.306;2024-01-10T11:08:26;7.00;;;2.10;;
68140;SDS011;54941;52.220;104.306;2024-01-10T11:10:54;4.15;;;1.95;;
68140;SDS011;54941;52.220;104.306;2024-01-10T11:13:31;3.78;;;1.88;;
68140;SDS011;54941;52.220;104.306;2024-01-10T11:16:26;4.53;;;2.33;;
68140;SDS011;54941;52.220;104.306;2024-01-10T11:19:15;4.28;;;2.08;;
68140;SDS011;54941;52.220;104.306;2024-01-10T11:22:05;5.28;;;2.22;;
68140;SDS011;54941;52.220;104.306;2024-01-10T11:24:42;6.40;;;2.40;;
68140;SDS011;54941;52.220;104.306;2024-01-10T11:27:10;5.68;;;2.60;;
68140;SDS011;54941;52.220;104.306;2024-01-10T11:29:39;5.55;;;2.05;;
68140;SDS011;54941;52.220;104.306;2024-01-10T11:32:06;5.40;;;2.40;;
68140;SDS011;54941;52.220;104.306;2024-01-10T11:34:32;5.68;;;2.55;;
68140;SDS011;54941;52.220;104.306;2024-01-10T11:39:46;6.30;;;3.20;;
68140;SDS011;54941;52.220;104.306;2024-01-10T11:42:21;5.85;;;2.30;;
68140;SDS011;54941;52.220;104.306;2024-01-10T11:44:49;6.82;;;3.47;;
68140;SDS011;54941;52.220;104.306;2024-01-10T11:47:16;6.47;;;2.90;;
68140;SDS011;54941;52.220;104.306;2024-01-10T11:49:54;7.95;;;3.35;;
68140;SDS011;54941;52.220;104.306;2024-01-10T11:52:21;6.88;;;3.40;;
68140;SDS011;54941;52.220;104.306;2024-01-10T11:54:47;10.27;;;4.10;;
68140;SDS011;54941;52.220;104.306;2024-01-10T11:57:14;12.38;;;6.05;;
68140;SDS011;54941;52.220;104.306;2024-01-10T11:59:44;12.52;;;5.63;;
68140;SDS011;54941;52.220;104.306;2024-01-10T12:02:12;10.68;;;4.15;;
68140;SDS011;54941;52.220;104.306;2024-01-10T12:04:39;8.98;;;4.50;;
68140;SDS011;54941;52.220;104.306;2024-01-10T12:07:05;8.27;;;4.35;;
68140;SDS011;54941;52.220;104.306;2024-01-10T12:09:32;9.55;;;3.60;;
68140;SDS011;54941;52.220;104.306;2024-01-10T12:11:58;6.32;;;3.05;;
68140;SDS011;54941;52.220;104.306;2024-01-10T12:14:27;8.07;;;4.15;;
68140;SDS011;54941;52.220;104.306;2024-01-10T12:16:53;11.48;;;4.35;;
68140;SDS011;54941;52.220;104.306;2024-01-10T12:19:21;12.55;;;4.75;;
68140;SDS011;54941;52.220;104.306;2024-01-10T12:21:48;8.85;;;3.95;;
68140;SDS011;54941;52.220;104.306;2024-01-10T12:24:14;11.27;;;5.22;;
68140;SDS011;54941;52.220;104.306;2024-01-10T12:26:44;8.02;;;4.50;;
68140;SDS011;54941;52.220;104.306;2024-01-10T12:29:10;7.72;;;3.63;;
68140;SDS011;54941;52.220;104.306;2024-01-10T12:31:37;6.15;;;2.92;;
68140;SDS011;54941;52.220;104.306;2024-01-10T12:34:03;6.78;;;3.05;;
68140;SDS011;54941;52.220;104.306;2024-01-10T12:36:36;7.13;;;3.58;;
68140;SDS011;54941;52.220;104.306;2024-01-10T12:39:02;7.35;;;2.78;;
68140;SDS011;54941;52.220;104.306;2024-01-10T12:41:29;6.68;;;3.15;;
68140;SDS011;54941;52.220;104.306;2024-01-10T12:43:55;7.75;;;3.35;;
68140;SDS011;54941;52.220;104.306;2024-01-10T12:46:24;4.97;;;2.47;;
68140;SDS011;54941;52.220;104.306;2024-01-10T12:48:57;7.55;;;3.28;;
68140;SDS011;54941;52.220;104.306;2024-01-10T12:51:24;5.85;;;3.30;;
68140;SDS011;54941;52.220;104.306;2024-01-10T12:53:52;6.60;;;3.45;;
68140;SDS011;54941;52.220;104.306;2024-01-10T12:56:19;7.57;;;3.13;;
68140;SDS011;54941;52.220;104.306;2024-01-10T12:58:48;7.82;;;3.03;;
68140;SDS011;54941;52.220;104.306;2024-01-10T13:01:16;7.18;;;3.17;;
68140;SDS011;54941;52.220;104.306;2024-01-10T13:03:51;10.35;;;4.07;;
68140;SDS011;54941;52.220;104.306;2024-01-10T13:06:18;19.85;;;8.88;;
68140;SDS011;54941;52.220;104.306;2024-01-10T13:08:44;9.18;;;4.85;;
68140;SDS011;54941;52.220;104.306;2024-01-10T13:11:13;10.25;;;4.32;;
68140;SDS011;54941;52.220;104.306;2024-01-10T13:13:39;7.45;;;3.92;;
68140;SDS011;54941;52.220;104.306;2024-01-10T13:16:06;6.80;;;3.47;;
68140;SDS011;54941;52.220;104.306;2024-01-10T13:18:32;6.30;;;3.42;;
68140;SDS011;54941;52.220;104.306;2024-01-10T13:20:58;7.95;;;3.50;;
68140;SDS011;54941;52.220;104.306;2024-01-10T13:23:25;7.60;;;3.08;;
68140;SDS011;54941;52.220;104.306;2024-01-10T13:25:51;7.50;;;3.60;;
68140;SDS011;54941;52.220;104.306;2024-01-10T13:28:19;6.43;;;3.33;;
68140;SDS011;54941;52.220;104.306;2024-01-10T13:30:45;7.65;;;3.58;;
68140;SDS011;54941;52.220;104.306;2024-01-10T13:33:11;10.68;;;4.22;;
68140;SDS011;54941;52.220;104.306;2024-01-10T13:35:38;7.32;;;3.67;;
68140;SDS011;54941;52.220;104.306;2024-01-10T13:38:04;10.30;;;5.10;;
68140;SDS011;54941;52.220;104.306;2024-01-10T13:40:31;8.70;;;4.00;;
68140;SDS011;54941;52.220;104.306;2024-01-10T13:42:57;10.18;;;4.78;;
68140;SDS011;54941;52.220;104.306;2024-01-10T13:45:25;10.18;;;4.35;;
68140;SDS011;54941;52.220;104.306;2024-01-10T13:47:51;13.85;;;4.60;;
68140;SDS011;54941;52.220;104.306;2024-01-10T13:50:17;8.75;;;3.75;;
68140;SDS011;54941;52.220;104.306;2024-01-10T13:52:43;6.78;;;3.70;;
68140;SDS011;54941;52.220;104.306;2024-01-10T13:55:10;8.48;;;3.80;;
68140;SDS011;54941;52.220;104.306;2024-01-10T13:57:38;10.40;;;5.47;;
68140;SDS011;54941;52.220;104.306;2024-01-10T14:00:05;7.50;;;3.92;;
68140;SDS011;54941;52.220;104.306;2024-01-10T14:02:34;9.07;;;4.40;;
68140;SDS011;54941;52.220;104.306;2024-01-10T14:05:01;12.43;;;5.60;;
68140;SDS011;54941;52.220;104.306;2024-01-10T14:07:28;7.10;;;3.35;;
68140;SDS011;54941;52.220;104.306;2024-01-10T14:09:56;8.68;;;3.97;;
68140;SDS011;54941;52.220;104.306;2024-01-10T14:12:22;6.68;;;3.75;;
68140;SDS011;54941;52.220;104.306;2024-01-10T14:14:49;9.15;;;4.32;;
68140;SDS011;54941;52.220;104.306;2024-01-10T14:17:15;8.85;;;4.85;;
68140;SDS011;54941;52.220;104.306;2024-01-10T14:19:43;10.98;;;5.35;;
68140;SDS011;54941;52.220;104.306;2024-01-10T14:22:09;10.10;;;5.60;;